Little Water, New Mexico
Current Conditions -  °F | °C
As of 7:53 PM on Friday 19 Dec 2014 (Local Time) from KFMN Reporting Station
Clear Clear  
Wind Chill: 25°   Ceiling: Unl
Heat Index: 31°   Visibility: 10mi
Dew Point: 25°   Wind: 6mph
Humidity: 79%   Direction: 270°W
Pressure: 30.19"   Gusts: NA
Location:  36.3945°N, 108.769°W
Report Text: KFMN 200253Z 27005KT 10SM CLR M01/M04 A3019 RMK AO2 SLP253 T10061039 51005
Loading
Personal Weather Stations






























Interactive Weather Map New forecast layout! Learn more

10-Day Weather Forecast

Advertisements
Track Severe Weather on mobile